createdAt,value
2018-10-21T00:00:19.808Z,29.35
2018-10-21T00:02:55.382Z,23.15
2018-10-21T00:05:30.948Z,27.32
2018-10-21T00:08:06.544Z,22.82
2018-10-21T00:10:42.004Z,32.73
2018-10-21T00:13:17.441Z,29.18
2018-10-21T00:15:52.953Z,20.85
2018-10-21T00:18:28.809Z,29.52
2018-10-21T00:21:04.518Z,23.10
2018-10-21T00:23:39.989Z,22.37
2018-10-21T00:26:15.328Z,22.67
2018-10-21T00:28:50.851Z,25.40
2018-10-21T00:31:26.282Z,28.10
2018-10-21T00:34:01.721Z,19.87
2018-10-21T00:36:37.048Z,32.10
2018-10-21T00:39:13.821Z,25.77
2018-10-21T00:41:49.209Z,26.42
2018-10-21T00:44:24.588Z,30.02
2018-10-21T00:47:00.028Z,23.45
2018-10-21T00:49:35.772Z,21.97
2018-10-21T00:52:11.244Z,21.37
2018-10-21T00:54:46.831Z,19.65
2018-10-21T00:57:22.269Z,21.60
2018-10-21T00:59:57.692Z,28.62
2018-10-21T01:02:33.136Z,18.05
2018-10-21T01:05:10.153Z,29.75
2018-10-21T01:07:45.522Z,26.52
2018-10-21T01:10:21.025Z,22.22
2018-10-21T01:12:56.245Z,25.35
2018-10-21T01:15:31.769Z,24.63
2018-10-21T01:18:07.273Z,22.95
2018-10-21T01:20:42.956Z,23.98
2018-10-21T01:23:18.498Z,24.72
2018-10-21T01:25:54.025Z,20.68
2018-10-21T01:28:29.482Z,21.52
2018-10-21T01:31:05.133Z,23.65
2018-10-21T01:33:40.540Z,25.52
2018-10-21T01:36:16.046Z,32.00
2018-10-21T01:38:51.296Z,24.63
2018-10-21T01:41:26.720Z,33.00
2018-10-21T01:44:01.954Z,22.27
2018-10-21T01:46:37.617Z,29.70
2018-10-21T01:49:13.055Z,26.95
2018-10-21T01:51:48.500Z,38.45
2018-10-21T01:54:26.186Z,25.40
2018-10-21T01:57:01.776Z,28.83
2018-10-21T01:59:37.275Z,32.70
2018-10-21T02:02:12.921Z,26.07
2018-10-21T02:04:48.216Z,31.25
2018-10-21T02:07:23.959Z,27.77
2018-10-21T02:09:59.266Z,27.32
2018-10-21T02:12:34.677Z,28.40
2018-10-21T02:15:11.342Z,41.88
2018-10-21T02:17:46.713Z,30.85
2018-10-21T02:20:22.652Z,32.13
2018-10-21T02:22:58.246Z,37.98
2018-10-21T02:25:33.736Z,34.18
2018-10-21T02:28:09.584Z,35.50
2018-10-21T02:30:44.917Z,44.23
2018-10-21T02:33:20.627Z,38.45
2018-10-21T02:35:56.017Z,40.03
2018-10-21T02:38:31.614Z,45.83
2018-10-21T02:42:02.037Z,43.58
2018-10-21T02:44:37.595Z,49.03
2018-10-21T02:47:12.937Z,48.00
2018-10-21T02:49:49.505Z,44.20
2018-10-21T02:52:24.840Z,40.98
2018-10-21T02:55:00.905Z,42.88
2018-10-21T02:57:36.141Z,40.73
2018-10-21T03:00:11.894Z,47.85
2018-10-21T03:02:47.133Z,48.87
2018-10-21T03:05:22.609Z,41.45
2018-10-21T03:07:58.353Z,45.83
2018-10-21T03:10:33.835Z,52.43
2018-10-21T03:13:09.049Z,44.30
2018-10-21T03:15:44.582Z,43.00
2018-10-21T03:18:20.108Z,46.40
2018-10-21T03:20:56.095Z,47.95
2018-10-21T03:23:31.706Z,50.65
2018-10-21T03:26:07.301Z,59.45
2018-10-21T03:28:42.467Z,52.45
2018-10-21T03:31:18.076Z,44.53
2018-10-21T03:33:53.582Z,54.18
2018-10-21T03:36:29.168Z,47.43
2018-10-21T03:39:06.910Z,52.45
2018-10-21T03:41:42.300Z,50.12
2018-10-21T03:44:17.733Z,44.27
2018-10-21T03:46:53.177Z,45.17
2018-10-21T03:49:28.853Z,44.73
2018-10-21T03:52:04.399Z,54.83
2018-10-21T03:54:43.799Z,52.40
2018-10-21T03:57:19.374Z,49.67
2018-10-21T03:59:54.585Z,46.50
2018-10-21T04:02:30.585Z,47.20
2018-10-21T04:05:06.089Z,42.75
2018-10-21T04:07:41.877Z,45.50
2018-10-21T04:10:17.362Z,43.30
2018-10-21T04:12:52.964Z,42.30
2018-10-21T04:15:28.299Z,41.65
2018-10-21T04:18:03.677Z,49.95
2018-10-21T04:20:38.964Z,45.35
2018-10-21T04:23:14.651Z,45.35
2018-10-21T04:25:50.126Z,41.53
2018-10-21T04:28:25.658Z,48.10
2018-10-21T04:31:00.904Z,44.45
2018-10-21T04:33:43.447Z,46.35
2018-10-21T04:36:30.728Z,42.85
2018-10-21T04:39:23.183Z,42.15
2018-10-21T04:41:58.686Z,44.83
2018-10-21T04:44:34.249Z,53.52
2018-10-21T04:47:09.883Z,48.38
2018-10-21T04:49:45.354Z,37.95
2018-10-21T04:52:20.821Z,40.20
2018-10-21T04:55:00.341Z,41.83
2018-10-21T04:57:36.846Z,41.18
2018-10-21T05:00:14.314Z,44.33
2018-10-21T05:02:49.664Z,38.50
2018-10-21T05:05:25.397Z,39.45
2018-10-21T05:08:00.692Z,40.70
2018-10-21T05:10:37.208Z,45.85
2018-10-21T05:13:12.533Z,45.30
2018-10-21T05:15:48.018Z,40.63
2018-10-21T05:18:23.233Z,43.60
2018-10-21T05:20:58.716Z,42.23
2018-10-21T05:23:34.010Z,35.85
2018-10-21T05:26:09.771Z,36.15
2018-10-21T05:28:45.226Z,48.00
2018-10-21T05:31:20.716Z,42.33
2018-10-21T05:33:55.989Z,56.30
2018-10-21T05:36:31.432Z,38.33
2018-10-21T05:39:10.156Z,41.37
2018-10-21T05:41:45.612Z,37.15
2018-10-21T05:44:21.121Z,47.73
2018-10-21T05:46:56.545Z,46.90
2018-10-21T05:49:32.334Z,40.25
2018-10-21T05:52:08.083Z,38.48
2018-10-21T05:54:44.175Z,43.13
2018-10-21T05:57:19.615Z,49.18
2018-10-21T05:59:55.117Z,46.05
2018-10-21T06:02:30.717Z,48.83
2018-10-21T06:05:16.647Z,48.08
2018-10-21T06:07:52.154Z,47.98
2018-10-21T06:10:34.383Z,40.25
2018-10-21T06:13:10.122Z,45.17
2018-10-21T06:15:45.533Z,48.35
2018-10-21T06:18:22.766Z,50.85
2018-10-21T06:21:00.620Z,56.98
2018-10-21T06:23:36.165Z,59.27
2018-10-21T06:26:11.533Z,54.67
2018-10-21T06:28:47.001Z,57.15
2018-10-21T06:31:22.436Z,56.18
2018-10-21T06:33:57.837Z,64.45
2018-10-21T06:36:33.260Z,55.20
2018-10-21T06:39:09.310Z,61.60
2018-10-21T06:41:44.632Z,52.15
2018-10-21T06:44:19.999Z,64.40
2018-10-21T06:46:55.489Z,56.60
2018-10-21T06:49:31.460Z,58.92
2018-10-21T06:52:07.041Z,64.85
2018-10-21T06:54:49.319Z,61.48
2018-10-21T06:57:24.768Z,61.88
2018-10-21T07:00:00.320Z,68.62
2018-10-21T07:02:35.785Z,62.58
2018-10-21T07:05:28.313Z,65.40
2018-10-21T07:08:03.698Z,63.87
2018-10-21T07:10:39.181Z,65.80
2018-10-21T07:13:14.654Z,65.65
2018-10-21T07:15:50.224Z,59.63
2018-10-21T07:18:25.389Z,61.68
2018-10-21T07:21:00.872Z,70.65
2018-10-21T07:23:36.325Z,63.58
2018-10-21T07:26:11.732Z,61.50
2018-10-21T07:28:46.989Z,67.82
2018-10-21T07:31:22.469Z,65.90
2018-10-21T07:33:57.680Z,63.80
2018-10-21T07:36:33.129Z,61.13
2018-10-21T07:39:10.516Z,61.48
2018-10-21T07:41:46.175Z,68.02
2018-10-21T07:44:21.557Z,60.10
2018-10-21T07:46:57.202Z,59.08
2018-10-21T07:49:32.848Z,59.50
2018-10-21T07:52:08.445Z,64.05
2018-10-21T07:54:46.038Z,59.65
2018-10-21T07:57:21.732Z,58.50
2018-10-21T07:59:57.084Z,59.80
2018-10-21T08:02:32.544Z,62.30
2018-10-21T08:05:12.496Z,52.50
2018-10-21T08:08:12.776Z,59.15
2018-10-21T08:10:48.074Z,54.93
2018-10-21T08:13:25.021Z,56.50
2018-10-21T08:16:00.620Z,58.52
2018-10-21T08:18:35.976Z,53.80
2018-10-21T08:21:11.318Z,56.50
2018-10-21T08:23:46.805Z,54.60
2018-10-21T08:26:22.021Z,56.25
2018-10-21T08:28:57.537Z,63.65
2018-10-21T08:31:33.036Z,52.33
2018-10-21T08:34:08.694Z,56.50
2018-10-21T08:36:44.100Z,58.42
2018-10-21T08:39:19.583Z,58.58
2018-10-21T08:41:54.968Z,58.25
2018-10-21T08:44:30.605Z,61.33
2018-10-21T08:47:06.205Z,62.15
2018-10-21T08:49:41.843Z,57.38
2018-10-21T08:52:17.291Z,64.82
2018-10-21T08:54:52.961Z,63.63
2018-10-21T08:57:28.356Z,64.20
2018-10-21T09:00:03.847Z,65.92
2018-10-21T09:02:39.469Z,67.97
2018-10-21T09:05:17.276Z,61.30
2018-10-21T09:07:52.708Z,65.22
2018-10-21T09:10:28.438Z,69.42
2018-10-21T09:13:03.769Z,62.17
2018-10-21T09:15:39.776Z,57.40
2018-10-21T09:18:15.109Z,70.50
2018-10-21T09:20:50.564Z,64.77
2018-10-21T09:23:25.822Z,57.93
2018-10-21T09:26:01.213Z,58.25
2018-10-21T09:28:36.655Z,67.17
2018-10-21T09:31:12.213Z,59.90
2018-10-21T09:33:47.590Z,61.70
2018-10-21T09:36:23.441Z,69.58
2018-10-21T09:38:58.813Z,53.78
2018-10-21T09:41:34.485Z,60.90
2018-10-21T09:44:10.790Z,52.73
2018-10-21T09:46:46.448Z,60.17
2018-10-21T09:49:21.747Z,59.55
2018-10-21T09:51:57.566Z,54.48
2018-10-21T09:54:33.101Z,52.40
2018-10-21T09:57:08.674Z,51.58
2018-10-21T09:59:44.174Z,55.17
2018-10-21T10:02:25.270Z,54.03
2018-10-21T10:05:00.893Z,59.55
2018-10-21T10:07:36.460Z,53.60
2018-10-21T10:10:12.548Z,55.95
2018-10-21T10:12:48.289Z,50.10
2018-10-21T10:15:23.498Z,52.80
2018-10-21T10:17:58.884Z,50.95
2018-10-21T10:20:34.446Z,53.38
2018-10-21T10:23:09.962Z,54.88
2018-10-21T10:25:45.439Z,57.98
2018-10-21T10:28:21.106Z,54.00
2018-10-21T10:30:56.696Z,61.00
2018-10-21T10:33:32.263Z,50.63
2018-10-21T10:36:07.627Z,62.15
2018-10-21T10:38:43.169Z,55.43
2018-10-21T10:41:19.359Z,65.05
2018-10-21T10:43:55.370Z,51.60
2018-10-21T10:46:30.969Z,56.45
2018-10-21T10:49:08.030Z,60.52
2018-10-21T10:51:44.469Z,62.38
2018-10-21T10:54:19.853Z,55.45
2018-10-21T10:56:55.457Z,59.33
2018-10-21T10:59:30.829Z,56.30
2018-10-21T11:02:06.576Z,55.95
2018-10-21T11:04:42.042Z,54.27
2018-10-21T11:07:17.674Z,50.20
2018-10-21T11:09:53.660Z,51.10
2018-10-21T11:12:28.921Z,55.70
2018-10-21T11:15:04.481Z,51.23
2018-10-21T11:17:39.975Z,49.03
2018-10-21T11:20:15.649Z,53.65
2018-10-21T11:22:51.142Z,50.75
2018-10-21T11:25:26.578Z,50.40
2018-10-21T11:28:02.128Z,55.35
2018-10-21T11:30:37.590Z,50.95
2018-10-21T11:33:12.965Z,48.98
2018-10-21T11:35:48.446Z,58.42
2018-10-21T11:38:23.822Z,49.88
2018-10-21T11:40:59.429Z,48.85
2018-10-21T11:43:34.884Z,52.85
2018-10-21T11:46:10.446Z,54.63
2018-10-21T11:48:45.841Z,48.00
2018-10-21T11:51:21.527Z,49.80
2018-10-21T11:53:57.023Z,50.52
2018-10-21T11:56:33.378Z,48.85
2018-10-21T11:59:09.525Z,54.95
2018-10-21T12:01:45.277Z,51.25
2018-10-21T12:04:20.792Z,49.90
2018-10-21T12:06:56.405Z,45.20
2018-10-21T12:09:31.878Z,46.15
2018-10-21T12:12:07.365Z,44.88
2018-10-21T12:14:42.857Z,39.65
2018-10-21T12:17:18.320Z,40.75
2018-10-21T12:19:53.880Z,39.88
2018-10-21T12:22:29.281Z,41.30
2018-10-21T12:25:05.032Z,44.88
2018-10-21T12:27:40.529Z,35.35
2018-10-21T12:30:15.866Z,37.38
2018-10-21T12:32:51.521Z,31.02
2018-10-21T12:35:26.896Z,34.92
2018-10-21T12:38:02.517Z,38.70
2018-10-21T12:40:37.900Z,32.42
2018-10-21T12:43:14.101Z,32.55
2018-10-21T12:45:49.293Z,31.70
2018-10-21T12:48:25.865Z,28.52
2018-10-21T12:51:03.913Z,28.23
2018-10-21T12:53:39.389Z,28.67
2018-10-21T12:56:14.925Z,24.80
2018-10-21T12:58:50.489Z,29.12
2018-10-21T13:01:26.511Z,22.82
2018-10-21T13:04:02.158Z,26.05
2018-10-21T13:06:44.028Z,31.62
2018-10-21T13:09:19.745Z,27.32
2018-10-21T13:11:55.278Z,28.92
2018-10-21T13:14:30.909Z,33.13
2018-10-21T13:17:12.598Z,28.65
2018-10-21T13:19:48.241Z,33.30
2018-10-21T13:22:23.680Z,31.30
2018-10-21T13:24:59.227Z,35.52
2018-10-21T13:27:34.502Z,32.08
2018-10-21T13:30:09.957Z,30.55
2018-10-21T13:32:45.411Z,31.73
2018-10-21T13:35:20.935Z,31.27
2018-10-21T13:37:56.261Z,30.20
2018-10-21T13:40:31.771Z,24.67
2018-10-21T13:43:07.394Z,30.60
2018-10-21T13:45:42.850Z,24.15
2018-10-21T13:48:18.181Z,28.00
2018-10-21T13:50:53.924Z,25.27
2018-10-21T13:53:29.359Z,27.70
2018-10-21T13:56:04.848Z,27.82
2018-10-21T13:58:40.206Z,29.10
2018-10-21T14:01:15.734Z,29.27
2018-10-21T14:03:51.070Z,27.77
2018-10-21T14:06:26.544Z,25.57
2018-10-21T14:09:02.030Z,26.50
2018-10-21T14:11:38.000Z,31.55
2018-10-21T14:14:13.388Z,31.97
2018-10-21T14:16:49.000Z,25.15
2018-10-21T14:19:24.836Z,26.45
2018-10-21T14:22:00.379Z,20.95
2018-10-21T14:24:35.704Z,25.30
2018-10-21T14:27:11.266Z,21.82
2018-10-21T14:29:46.891Z,22.95
2018-10-21T14:32:22.356Z,21.33
2018-10-21T14:34:57.869Z,26.02
2018-10-21T14:37:33.313Z,26.05
2018-10-21T14:40:11.408Z,34.95
2018-10-21T14:42:46.909Z,26.05
2018-10-21T14:45:22.248Z,25.75
2018-10-21T14:47:57.773Z,24.67
2018-10-21T14:50:33.349Z,25.60
2018-10-21T14:53:09.016Z,27.48
2018-10-21T14:55:44.993Z,27.07
2018-10-21T14:58:20.629Z,27.98
2018-10-21T15:00:56.109Z,25.32
2018-10-21T15:03:31.708Z,25.60
2018-10-21T15:06:08.082Z,23.25
2018-10-21T15:08:43.575Z,27.62
2018-10-21T15:11:18.901Z,25.35
2018-10-21T15:13:54.495Z,23.45
2018-10-21T15:16:29.683Z,23.73
2018-10-21T15:19:05.839Z,26.05
2018-10-21T15:21:41.186Z,22.77
2018-10-21T15:24:16.825Z,21.68
2018-10-21T15:26:52.229Z,22.05
2018-10-21T15:29:28.041Z,29.12
2018-10-21T15:32:03.485Z,24.87
2018-10-21T15:34:39.167Z,22.82
2018-10-21T15:37:14.590Z,21.77
2018-10-21T15:39:50.257Z,23.55
2018-10-21T15:42:25.687Z,20.62
2018-10-21T15:45:01.121Z,24.15
2018-10-21T15:47:36.332Z,22.93
2018-10-21T15:50:12.252Z,22.70
2018-10-21T15:52:47.719Z,23.77
2018-10-21T15:55:23.905Z,22.15
2018-10-21T15:57:59.420Z,22.85
2018-10-21T16:00:34.852Z,23.70
2018-10-21T16:03:10.261Z,21.90
2018-10-21T16:05:46.089Z,23.67
2018-10-21T16:08:21.801Z,24.30
2018-10-21T16:10:57.328Z,24.57
2018-10-21T16:13:32.673Z,24.45
2018-10-21T16:16:08.456Z,25.55
2018-10-21T16:18:43.757Z,23.92
2018-10-21T16:21:19.194Z,25.37
2018-10-21T16:23:54.504Z,21.40
2018-10-21T16:26:30.011Z,24.02
2018-10-21T16:29:05.608Z,29.20
2018-10-21T16:31:41.016Z,28.55
2018-10-21T16:34:16.836Z,29.90
2018-10-21T16:36:52.384Z,25.40
2018-10-21T16:39:27.677Z,27.05
2018-10-21T16:42:03.383Z,27.42
2018-10-21T16:44:39.005Z,30.35
2018-10-21T16:47:14.642Z,30.60
2018-10-21T16:49:50.211Z,36.38
2018-10-21T16:52:25.828Z,32.50
2018-10-21T16:55:01.345Z,26.90
2018-10-21T16:57:37.115Z,34.78
2018-10-21T17:00:14.802Z,35.68
2018-10-21T17:02:50.299Z,29.52
2018-10-21T17:05:25.829Z,42.25
2018-10-21T17:08:01.456Z,37.00
2018-10-21T17:10:37.062Z,34.60
2018-10-21T17:13:12.338Z,32.08
2018-10-21T17:15:47.726Z,32.53
2018-10-21T17:18:25.217Z,34.08
2018-10-21T17:21:00.645Z,37.48
2018-10-21T17:23:36.220Z,30.57
2018-10-21T17:26:11.869Z,32.60
2018-10-21T17:28:47.285Z,29.48
2018-10-21T17:31:22.785Z,36.25
2018-10-21T17:33:58.371Z,36.77
2018-10-21T17:36:34.150Z,31.02
2018-10-21T17:39:13.431Z,29.92
2018-10-21T17:41:49.064Z,37.23
2018-10-21T17:44:24.573Z,29.20
2018-10-21T17:47:00.128Z,28.70
2018-10-21T17:49:35.598Z,34.95
2018-10-21T17:52:11.183Z,34.73
2018-10-21T17:54:46.629Z,38.78
2018-10-21T17:57:22.170Z,40.30
2018-10-21T17:59:57.709Z,33.02
2018-10-21T18:02:33.135Z,35.43
2018-10-21T18:05:11.060Z,33.65
2018-10-21T18:07:46.587Z,36.25
2018-10-21T18:10:28.541Z,33.10
2018-10-21T18:13:04.139Z,42.73
2018-10-21T18:15:39.757Z,29.80
2018-10-21T18:18:15.227Z,27.42
2018-10-21T18:20:50.753Z,26.45
2018-10-21T18:23:26.119Z,25.77
2018-10-21T18:26:01.679Z,32.00
2018-10-21T18:28:37.096Z,28.70
2018-10-21T18:31:12.922Z,39.10
2018-10-21T18:33:48.438Z,25.92
2018-10-21T18:36:24.121Z,34.48
2018-10-21T18:38:59.649Z,23.00
2018-10-21T18:41:35.320Z,27.37
2018-10-21T18:44:10.684Z,48.48
2018-10-21T18:46:46.313Z,26.55
2018-10-21T18:49:21.694Z,31.27
2018-10-21T18:51:57.147Z,24.45
2018-10-21T18:54:32.639Z,23.85
2018-10-21T18:57:08.128Z,28.52
2018-10-21T18:59:43.739Z,21.50
2018-10-21T19:02:19.369Z,27.75
2018-10-21T19:04:55.262Z,29.27
2018-10-21T19:07:30.917Z,32.75
2018-10-21T19:10:08.544Z,27.82
2018-10-21T19:12:44.413Z,31.73
2018-10-21T19:15:19.849Z,29.30
2018-10-21T19:17:55.392Z,25.35
2018-10-21T19:20:30.922Z,32.65
2018-10-21T19:23:06.680Z,27.00
2018-10-21T19:25:42.052Z,25.15
2018-10-21T19:28:17.901Z,22.62
2018-10-21T19:30:53.221Z,28.15
2018-10-21T19:33:28.752Z,31.62
2018-10-21T19:36:04.329Z,25.32
2018-10-21T19:38:40.063Z,26.07
2018-10-21T19:41:15.415Z,23.85
2018-10-21T19:43:51.083Z,20.95
2018-10-21T19:46:26.503Z,21.33
2018-10-21T19:49:02.244Z,23.75
2018-10-21T19:51:37.595Z,27.25
2018-10-21T19:54:13.081Z,20.70
2018-10-21T19:56:48.287Z,22.42
2018-10-21T19:59:23.840Z,19.35
2018-10-21T20:01:59.303Z,23.32
2018-10-21T20:04:34.928Z,20.60
2018-10-21T20:07:10.468Z,18.60
2018-10-21T20:09:45.781Z,19.05
2018-10-21T20:12:21.459Z,23.22
2018-10-21T20:14:56.967Z,16.90
2018-10-21T20:17:32.500Z,22.82
2018-10-21T20:20:09.146Z,19.45
2018-10-21T20:22:44.716Z,27.62
2018-10-21T20:25:20.533Z,20.92
2018-10-21T20:27:55.979Z,20.50
2018-10-21T20:30:31.523Z,25.27
2018-10-21T20:33:07.137Z,22.00
2018-10-21T20:35:42.601Z,22.35
2018-10-21T20:38:18.217Z,18.42
2018-10-21T20:40:53.590Z,20.35
2018-10-21T20:43:29.142Z,21.25
2018-10-21T20:46:05.178Z,19.85
2018-10-21T20:48:40.596Z,20.92
2018-10-21T20:51:16.295Z,16.85
2018-10-21T20:53:51.657Z,29.90
2018-10-21T20:56:27.149Z,24.07
2018-10-21T20:59:02.507Z,15.68
2018-10-21T21:01:38.017Z,17.23
2018-10-21T21:04:13.484Z,27.55
2018-10-21T21:06:48.784Z,25.82
2018-10-21T21:09:24.212Z,18.55
2018-10-21T21:11:59.655Z,18.75
2018-10-21T21:14:35.273Z,24.40
2018-10-21T21:17:10.845Z,28.67
2018-10-21T21:19:46.119Z,22.45
2018-10-21T21:22:22.161Z,23.22
2018-10-21T21:24:57.621Z,26.25
2018-10-21T21:27:33.145Z,19.45
2018-10-21T21:30:08.520Z,21.52
2018-10-21T21:32:44.056Z,24.95
2018-10-21T21:35:19.389Z,22.45
2018-10-21T21:37:54.989Z,22.98
2018-10-21T21:40:30.161Z,27.02
2018-10-21T21:43:06.222Z,23.30
2018-10-21T21:45:41.540Z,24.63
2018-10-21T21:48:17.170Z,24.75
2018-10-21T21:50:52.564Z,31.75
2018-10-21T21:53:28.301Z,26.73
2018-10-21T21:56:03.830Z,27.98
2018-10-21T21:58:39.455Z,26.20
2018-10-21T22:01:14.782Z,27.77
2018-10-21T22:03:50.413Z,27.42
2018-10-21T22:06:25.660Z,27.15
2018-10-21T22:09:01.278Z,33.42
2018-10-21T22:11:36.830Z,30.65
2018-10-21T22:14:12.476Z,29.82
2018-10-21T22:16:47.828Z,29.57
2018-10-21T22:19:23.889Z,32.30
2018-10-21T22:21:59.377Z,34.27
2018-10-21T22:24:34.804Z,41.98
2018-10-21T22:27:10.126Z,37.85
2018-10-21T22:29:45.828Z,35.45
2018-10-21T22:32:21.244Z,32.17
2018-10-21T22:34:56.764Z,29.85
2018-10-21T22:37:32.299Z,32.70
2018-10-21T22:40:08.502Z,31.90
2018-10-21T22:42:43.815Z,33.48
2018-10-21T22:45:19.572Z,31.60
2018-10-21T22:47:54.927Z,32.83
2018-10-21T22:50:30.382Z,32.25
2018-10-21T22:53:05.982Z,31.73
2018-10-21T22:55:41.678Z,29.92
2018-10-21T22:58:17.311Z,29.72
2018-10-21T23:00:52.895Z,33.60
2018-10-21T23:03:28.981Z,34.48
2018-10-21T23:06:04.538Z,32.73
2018-10-21T23:08:39.953Z,35.05
2018-10-21T23:11:15.440Z,34.95
2018-10-21T23:13:50.933Z,36.13
2018-10-21T23:16:26.448Z,34.00
2018-10-21T23:19:18.932Z,34.08
2018-10-21T23:21:54.773Z,33.53
2018-10-21T23:24:30.280Z,32.17
2018-10-21T23:27:05.838Z,38.30
2018-10-21T23:29:42.098Z,33.98
2018-10-21T23:32:17.517Z,35.23
2018-10-21T23:34:53.053Z,34.67
2018-10-21T23:37:28.549Z,37.60
2018-10-21T23:40:04.121Z,37.80
2018-10-21T23:42:39.537Z,33.13
2018-10-21T23:45:14.964Z,29.32
2018-10-21T23:47:50.647Z,35.95
2018-10-21T23:50:26.106Z,28.50
2018-10-21T23:53:01.821Z,30.15
2018-10-21T23:55:37.305Z,26.73
2018-10-21T23:58:12.877Z,29.27
